Time;durP1;ratioP1;P1;durP2;ratioP2;P2;SDS_P1;SDS_P2;PMS_P1;PMS_P2;Temp;Humidity;BMP_temperature;BMP_pressure;BME280_temperature;BME280_humidity;BME280_pressure;Samples;Min_cycle;Max_cycle;Signal;HPM_P1;HPM_P2
2022/11/17 00:01:48;;;;;;;24.58;14.45;;;8.10;99.90;;;;;;5136369;27;20062;-82
2022/11/17 00:04:14;;;;;;;30.23;15.98;;;9.00;99.90;;;;;;5135104;27;20039;-82
2022/11/17 00:06:40;;;;;;;28.58;17.17;;;8.20;99.90;;;;;;5133726;27;20055;-81
2022/11/17 00:09:09;;;;;;;30.10;15.57;;;8.20;99.90;;;;;;5134710;27;20427;-83
2022/11/17 00:14:31;;;;;;;29.65;16.13;;;8.20;99.90;;;;;;5134995;27;20049;-82
2022/11/17 00:14:32;;;;;;;27.67;14.15;;;8.20;99.90;;;;;;5134677;27;20486;-83
2022/11/17 00:16:59;;;;;;;26.17;16.23;;;8.20;99.90;;;;;;5135013;27;20080;-82
2022/11/17 00:22:09;;;;;;;25.95;14.70;;;7.70;99.90;;;;;;5134816;28;20112;-81
2022/11/17 00:24:35;;;;;;;27.67;15.50;;;8.20;99.90;;;;;;5134650;28;20047;-81
2022/11/17 00:27:00;;;;;;;28.80;15.10;;;8.20;99.90;;;;;;5135214;28;20474;-82
2022/11/17 00:29:26;;;;;;;27.50;13.98;;;8.20;99.90;;;;;;5134596;28;20039;-82
2022/11/17 00:34:36;;;;;;;29.65;14.63;;;7.50;99.90;;;;;;5133696;28;20051;-80
2022/11/17 00:37:02;;;;;;;20.25;13.88;;;8.20;99.90;;;;;;5134340;28;20391;-83
2022/11/17 00:39:28;;;;;;;23.15;12.90;;;8.20;99.90;;;;;;5134565;28;20039;-82
2022/11/17 00:41:54;;;;;;;21.02;13.38;;;8.20;99.90;;;;;;5134706;27;20087;-82
2022/11/17 00:44:20;;;;;;;23.17;13.15;;;8.20;99.90;;;;;;5134572;27;20139;-82
2022/11/17 00:46:46;;;;;;;20.60;13.52;;;8.20;99.90;;;;;;5134490;28;20082;-81
2022/11/17 00:49:12;;;;;;;20.17;12.80;;;8.20;99.90;;;;;;5134514;27;20040;-82
2022/11/17 00:51:38;;;;;;;22.13;12.30;;;8.20;99.90;;;;;;5134261;27;20125;-82
2022/11/17 00:54:04;;;;;;;23.55;12.27;;;8.20;99.90;;;;;;5134588;28;20090;-83
2022/11/17 00:56:30;;;;;;;20.88;12.45;;;8.20;99.90;;;;;;5134502;27;20054;-82
2022/11/17 00:58:56;;;;;;;23.30;13.13;;;8.20;99.90;;;;;;5133254;28;20104;-82
2022/11/17 01:01:23;;;;;;;20.80;12.50;;;8.40;99.90;;;;;;5134626;28;20047;-80
2022/11/17 01:03:48;;;;;;;18.27;12.23;;;8.20;99.90;;;;;;5137916;27;20114;-81
2022/11/17 01:06:17;;;;;;;16.10;10.82;;;8.70;99.90;;;;;;5135395;27;20081;-82
2022/11/17 01:08:43;;;;;;;18.15;12.80;;;8.20;99.90;;;;;;5138094;27;20038;-83
2022/11/17 01:11:13;;;;;;;19.23;12.30;;;8.20;99.90;;;;;;5136802;27;20548;-82
2022/11/17 01:13:40;;;;;;;17.58;11.75;;;8.20;99.90;;;;;;5137120;27;20043;-81
2022/11/17 01:16:07;;;;;;;;;;;8.20;99.90;;;;;;5138737;27;20062;-82
2022/11/17 01:18:33;;;;;;;20.00;12.43;;;8.20;99.90;;;;;;5137999;27;20349;-80
2022/11/17 01:21:04;;;;;;;20.23;11.95;;;8.20;99.90;;;;;;5137819;27;20498;-80
2022/11/17 01:23:31;;;;;;;18.88;11.15;;;8.20;99.90;;;;;;5138074;27;20122;-80
2022/11/17 01:26:11;;;;;;;15.73;11.35;;;8.20;99.90;;;;;;5136852;27;20107;-81
2022/11/17 01:28:37;;;;;;;20.95;11.85;;;8.20;99.90;;;;;;5136878;27;20046;-81
2022/11/17 01:31:10;;;;;;;16.77;11.23;;;8.20;99.90;;;;;;5136628;27;20047;-81
2022/11/17 01:33:36;;;;;;;19.30;11.73;;;8.70;99.90;;;;;;5136979;27;20050;-81
2022/11/17 01:36:03;;;;;;;19.70;12.32;;;8.20;99.90;;;;;;5137404;27;20043;-82
2022/11/17 01:38:29;;;;;;;15.75;11.05;;;8.20;99.90;;;;;;5138089;27;20035;-81
2022/11/17 01:40:57;;;;;;;19.03;12.10;;;8.20;99.90;;;;;;5137913;27;20047;-83
2022/11/17 01:43:42;;;;;;;17.20;12.07;;;8.20;99.90;;;;;;5137706;27;20050;-82
2022/11/17 01:46:30;;;;;;;15.35;10.68;;;8.20;99.90;;;;;;5136523;27;20055;-83
2022/11/17 01:48:59;;;;;;;;;;;8.20;99.90;;;;;;5138034;27;20043;-81
2022/11/17 01:51:26;;;;;;;15.82;10.90;;;8.20;99.90;;;;;;5137573;27;19919;-81
2022/11/17 01:53:52;;;;;;;19.15;11.60;;;8.40;99.90;;;;;;5137491;27;20039;-81
2022/11/17 01:56:24;;;;;;;14.23;10.10;;;8.20;99.90;;;;;;5137436;27;20057;-83
2022/11/17 01:58:59;;;;;;;18.17;11.13;;;8.50;99.90;;;;;;5137325;27;20135;-82
2022/11/17 02:01:24;;;;;;;15.68;10.63;;;8.20;99.90;;;;;;5137811;27;20043;-84
2022/11/17 02:03:50;;;;;;;17.55;11.20;;;8.30;99.90;;;;;;5140469;27;20047;-83
2022/11/17 02:06:34;;;;;;;16.48;10.80;;;8.30;99.90;;;;;;5137563;27;20039;-81
2022/11/17 02:09:02;;;;;;;16.65;9.60;;;8.30;99.90;;;;;;5135981;27;20092;-81
2022/11/17 02:11:34;;;;;;;16.08;10.25;;;8.40;99.90;;;;;;5137287;27;20035;-83
2022/11/17 02:14:02;;;;;;;18.63;11.30;;;7.80;99.90;;;;;;5120191;27;20050;-82
2022/11/17 02:16:27;;;;;;;18.80;11.07;;;8.30;99.90;;;;;;5137162;27;20051;-81
2022/11/17 02:18:53;;;;;;;18.42;9.93;;;8.30;99.90;;;;;;5136865;27;20380;-80
2022/11/17 02:21:37;;;;;;;15.90;10.90;;;8.30;99.90;;;;;;5135611;27;20054;-80
2022/11/17 02:24:37;;;;;;;18.08;10.73;;;8.30;99.90;;;;;;5136986;27;20051;-82
2022/11/17 02:27:33;;;;;;;18.65;11.40;;;8.20;99.90;;;;;;5136944;27;20387;-81
2022/11/17 02:30:03;;;;;;;20.15;11.05;;;8.20;99.90;;;;;;5136407;27;20469;-82
2022/11/17 02:32:44;;;;;;;16.73;10.02;;;8.20;99.90;;;;;;5136677;27;20047;-82
2022/11/17 02:35:23;;;;;;;17.00;10.68;;;8.20;99.90;;;;;;5136734;27;20046;-81
2022/11/17 02:38:06;;;;;;;18.33;11.43;;;8.10;99.90;;;;;;5136432;27;20050;-82
2022/11/17 02:40:47;;;;;;;19.27;12.50;;;8.10;99.90;;;;;;5136572;27;20050;-82
2022/11/17 02:46:15;;;;;;;19.83;12.15;;;8.10;99.90;;;;;;5136336;27;20091;-81
2022/11/17 02:48:48;;;;;;;18.23;11.88;;;8.10;99.90;;;;;;5136380;27;20039;-82
2022/11/17 02:51:21;;;;;;;18.95;12.32;;;8.00;99.90;;;;;;5136822;27;20050;-81
2022/11/17 02:53:48;;;;;;;22.95;12.45;;;8.00;99.90;;;;;;5136398;27;20403;-79
2022/11/17 02:56:14;;;;;;;23.65;12.15;;;8.20;99.90;;;;;;5136026;27;20513;-81
2022/11/17 02:58:40;;;;;;;19.27;12.27;;;8.40;99.90;;;;;;5136314;27;20043;-81
2022/11/17 03:01:08;;;;;;;18.67;12.77;;;7.90;99.90;;;;;;5135727;27;20054;-80
2022/11/17 03:04:01;;;;;;;22.58;12.45;;;7.90;99.90;;;;;;5135991;27;20054;-80
2022/11/17 03:06:53;;;;;;;22.73;12.98;;;7.90;99.90;;;;;;5136717;27;20039;-81
2022/11/17 03:09:46;;;;;;;18.83;12.98;;;8.00;99.90;;;;;;5135793;27;20483;-80
2022/11/17 03:12:23;;;;;;;16.65;11.68;;;7.90;99.90;;;;;;5135814;27;20478;-80
2022/11/17 03:15:12;;;;;;;25.45;11.85;;;7.80;99.90;;;;;;5134853;27;20039;-80
2022/11/17 03:18:01;;;;;;;18.88;12.27;;;7.80;99.90;;;;;;5136081;27;20035;-80
2022/11/17 03:20:42;;;;;;;19.75;11.85;;;7.80;99.90;;;;;;5136093;27;20478;-81
2022/11/17 03:23:10;;;;;;;17.20;10.60;;;7.80;99.90;;;;;;5135788;27;20039;-80
2022/11/17 03:25:38;;;;;;;18.45;11.48;;;8.30;99.90;;;;;;5136049;27;20079;-82
2022/11/17 03:28:07;;;;;;;17.83;11.98;;;7.80;99.90;;;;;;5135597;27;20087;-81
2022/11/17 03:30:36;;;;;;;16.92;12.18;;;7.70;99.90;;;;;;5135259;27;20051;-82
2022/11/17 03:33:08;;;;;;;22.23;12.45;;;7.70;99.90;;;;;;5135644;27;20039;-81
2022/11/17 03:35:40;;;;;;;18.73;12.13;;;7.70;99.90;;;;;;5134427;27;20067;-80
2022/11/17 03:38:11;;;;;;;15.90;10.98;;;7.70;99.90;;;;;;5135503;27;20035;-81
2022/11/17 03:40:42;;;;;;;18.15;11.95;;;7.70;99.90;;;;;;5134457;27;20054;-81
2022/11/17 03:43:10;;;;;;;17.98;11.18;;;7.70;99.90;;;;;;5135889;27;20096;-82
2022/11/17 03:45:43;;;;;;;17.05;11.15;;;7.20;99.90;;;;;;5135360;27;20054;-81
2022/11/17 03:48:16;;;;;;;15.68;10.85;;;7.70;99.90;;;;;;5135846;27;20127;-81
2022/11/17 03:51:08;;;;;;;17.92;11.52;;;7.70;99.90;;;;;;5135964;27;20058;-81
2022/11/17 03:53:34;;;;;;;16.27;11.02;;;7.60;99.90;;;;;;5121677;27;20065;-81
2022/11/17 03:56:03;;;;;;;18.55;11.43;;;7.60;99.90;;;;;;5135709;27;20089;-81
2022/11/17 03:58:31;;;;;;;16.40;10.82;;;7.60;99.90;;;;;;5135318;27;20047;-81
2022/11/17 04:01:00;;;;;;;18.98;11.95;;;7.60;99.90;;;;;;5135329;27;20070;-81
2022/11/17 04:03:32;;;;;;;17.30;10.88;;;7.60;99.90;;;;;;5135178;27;20046;-83
2022/11/17 04:05:58;;;;;;;15.25;9.63;;;7.50;99.90;;;;;;5134114;27;20050;-81
2022/11/17 04:08:28;;;;;;;14.27;10.17;;;7.50;99.90;;;;;;5134934;27;20039;-81
2022/11/17 04:16:23;;;;;;;14.30;10.30;;;7.50;99.90;;;;;;5134906;27;20047;-81
2022/11/17 04:18:50;;;;;;;13.85;9.75;;;7.50;99.90;;;;;;5135136;27;20043;-81
2022/11/17 04:21:16;;;;;;;15.20;10.18;;;7.50;99.90;;;;;;5133776;28;20127;-82
2022/11/17 04:23:42;;;;;;;13.20;9.40;;;7.50;99.90;;;;;;5135200;27;20039;-81
2022/11/17 04:28:53;;;;;;;16.02;10.73;;;7.40;99.90;;;;;;5134876;28;20499;-81
2022/11/17 04:31:30;;;;;;;13.90;9.20;;;7.40;99.90;;;;;;5134124;28;20111;-81
2022/11/17 04:34:01;;;;;;;16.42;11.48;;;7.40;99.90;;;;;;5133779;28;20043;-81
2022/11/17 04:36:31;;;;;;;14.90;9.82;;;7.40;99.90;;;;;;5134678;28;20126;-82
2022/11/17 04:38:58;;;;;;;14.25;10.10;;;7.00;99.90;;;;;;5134801;27;20466;-81
2022/11/17 04:44:12;;;;;;;15.57;8.67;;;7.30;99.90;;;;;;5138913;27;20054;-81
2022/11/17 04:46:39;;;;;;;12.70;8.45;;;7.40;99.90;;;;;;5139270;27;20035;-81
2022/11/17 04:49:05;;;;;;;10.43;8.13;;;7.10;99.90;;;;;;5138853;27;20072;-82
2022/11/17 04:51:32;;;;;;;15.65;8.98;;;7.30;99.90;;;;;;5138549;27;20047;-81
2022/11/17 04:53:58;;;;;;;12.50;9.00;;;7.30;99.90;;;;;;5138715;27;20432;-81
2022/11/17 04:56:25;;;;;;;13.27;8.50;;;7.20;99.90;;;;;;5138631;27;20047;-82
2022/11/17 04:58:51;;;;;;;11.32;8.65;;;7.30;99.90;;;;;;5137783;27;20186;-81
2022/11/17 05:01:17;;;;;;;11.20;7.97;;;6.90;99.90;;;;;;5138671;27;20086;-82
2022/11/17 05:03:44;;;;;;;10.98;7.03;;;7.20;99.90;;;;;;5138633;27;20123;-82
2022/11/17 05:06:22;;;;;;;9.98;7.72;;;7.20;99.90;;;;;;5138279;27;20047;-81
2022/11/17 05:08:49;;;;;;;10.07;8.05;;;7.20;99.90;;;;;;5138255;27;20043;-81
2022/11/17 05:14:00;;;;;;;10.75;7.82;;;7.00;99.90;;;;;;5138259;27;20502;-82
2022/11/17 05:19:16;;;;;;;12.25;8.07;;;7.10;99.90;;;;;;5137985;27;20055;-81
2022/11/17 05:21:42;;;;;;;13.43;8.45;;;7.10;99.90;;;;;;5138127;27;20039;-81
2022/11/17 05:24:08;;;;;;;12.30;8.65;;;8.00;99.90;;;;;;5138248;27;20039;-81
2022/11/17 05:26:36;;;;;;;11.27;8.17;;;7.10;99.90;;;;;;5137978;27;20121;-81
2022/11/17 05:29:04;;;;;;;11.85;8.02;;;7.00;99.90;;;;;;5137947;27;20391;-81
2022/11/17 05:31:30;;;;;;;10.77;8.50;;;7.00;99.90;;;;;;5136457;27;20069;-79
2022/11/17 05:33:56;;;;;;;12.68;9.18;;;7.00;99.90;;;;;;5137867;27;20127;-80
2022/11/17 05:36:23;;;;;;;11.45;8.45;;;7.00;99.90;;;;;;5137629;27;20374;-82
2022/11/17 05:38:49;;;;;;;12.43;8.70;;;6.60;99.90;;;;;;5137702;27;20122;-80
2022/11/17 05:41:16;;;;;;;11.95;8.07;;;7.10;99.90;;;;;;5137766;27;20074;-80
2022/11/17 05:43:42;;;;;;;12.13;8.15;;;7.00;99.90;;;;;;5137608;27;20072;-81
2022/11/17 05:46:07;;;;;;;11.60;8.27;;;7.00;99.90;;;;;;5136575;27;20051;-80
2022/11/17 05:48:33;;;;;;;11.40;8.30;;;7.60;99.90;;;;;;5137621;27;20043;-82
2022/11/17 05:51:00;;;;;;;10.80;8.63;;;6.90;99.90;;;;;;5137413;27;20070;-80
2022/11/17 05:53:26;;;;;;;12.32;8.50;;;7.00;99.90;;;;;;5136866;27;20413;-80
2022/11/17 05:56:12;;;;;;;10.75;7.93;;;6.90;99.90;;;;;;5137514;27;20147;-81
2022/11/17 05:58:41;;;;;;;12.35;8.18;;;6.80;99.90;;;;;;5137363;27;20046;-80
2022/11/17 06:01:08;;;;;;;11.82;8.68;;;7.00;99.90;;;;;;5137178;27;20470;-82
2022/11/17 06:03:39;;;;;;;11.13;8.30;;;6.80;99.90;;;;;;5137598;27;20099;-81
2022/11/17 06:06:06;;;;;;;11.50;7.78;;;6.80;99.90;;;;;;5137094;27;20402;-81
2022/11/17 06:08:33;;;;;;;10.63;7.78;;;6.80;99.90;;;;;;5137383;27;20043;-80
2022/11/17 06:10:59;;;;;;;9.05;7.25;;;6.80;99.90;;;;;;5137338;27;20047;-80
2022/11/17 06:13:27;;;;;;;8.70;6.90;;;6.80;99.90;;;;;;5137046;27;20039;-81
2022/11/17 06:15:55;;;;;;;10.25;7.55;;;6.80;99.90;;;;;;5137069;27;20095;-80
2022/11/17 06:18:27;;;;;;;11.52;7.35;;;6.80;99.90;;;;;;5136021;27;20457;-81
2022/11/17 06:20:54;;;;;;;9.82;7.03;;;7.40;99.90;;;;;;5137303;27;20050;-82
2022/11/17 06:23:24;;;;;;;9.13;6.68;;;6.80;99.90;;;;;;5137013;27;20091;-79
2022/11/17 06:25:50;;;;;;;13.05;8.00;;;6.70;99.90;;;;;;5136843;27;20039;-81
2022/11/17 06:28:18;;;;;;;9.88;7.43;;;6.70;99.90;;;;;;5135323;27;20035;-79
2022/11/17 06:30:44;;;;;;;10.30;7.10;;;7.00;99.90;;;;;;5136384;27;20062;-87
2022/11/17 06:33:13;;;;;;;8.63;6.40;;;6.70;99.90;;;;;;5136604;27;20050;-82
2022/11/17 06:35:41;;;;;;;10.38;7.20;;;6.70;99.90;;;;;;5136799;27;20043;-80
2022/11/17 06:38:06;;;;;;;10.70;6.70;;;6.70;99.90;;;;;;5136501;27;20039;-78
2022/11/17 06:40:32;;;;;;;10.23;6.30;;;6.70;99.90;;;;;;5136314;27;20050;-76
2022/11/17 06:43:08;;;;;;;8.75;6.47;;;6.60;99.90;;;;;;5136717;27;20047;-79
2022/11/17 06:45:43;;;;;;;8.95;7.10;;;6.70;99.90;;;;;;5136804;27;20053;-75
2022/11/17 06:48:10;;;;;;;9.93;7.07;;;6.70;99.90;;;;;;5134967;27;20042;-77
2022/11/17 06:50:36;;;;;;;10.32;6.82;;;6.70;99.90;;;;;;5135883;27;20121;-76
2022/11/17 06:53:04;;;;;;;8.95;6.20;;;6.70;99.90;;;;;;5135291;27;20130;-78
2022/11/17 06:55:30;;;;;;;10.52;6.72;;;6.70;99.90;;;;;;5135899;27;20469;-77
2022/11/17 06:58:07;;;;;;;8.82;6.80;;;6.70;99.90;;;;;;5136243;27;20043;-78
2022/11/17 07:00:34;;;;;;;9.65;6.55;;;6.70;99.90;;;;;;5135195;27;20130;-77
2022/11/17 07:03:02;;;;;;;10.05;6.80;;;6.70;99.90;;;;;;5135664;27;20440;-79
2022/11/17 07:05:29;;;;;;;9.35;7.10;;;6.70;99.90;;;;;;5134252;27;20484;-78
2022/11/17 07:07:59;;;;;;;9.25;6.22;;;6.70;99.90;;;;;;5135317;27;20082;-82
2022/11/17 07:10:24;;;;;;;9.63;6.45;;;6.70;99.90;;;;;;5135998;27;20086;-80
2022/11/17 07:12:50;;;;;;;7.72;5.55;;;6.50;99.90;;;;;;5136012;27;20035;-79
2022/11/17 07:15:16;;;;;;;9.23;6.68;;;6.70;99.90;;;;;;5134022;27;20031;-81
2022/11/17 07:17:41;;;;;;;8.15;6.45;;;6.70;99.90;;;;;;5133667;27;20418;-77
2022/11/17 07:20:07;;;;;;;10.98;6.68;;;6.70;99.90;;;;;;5135009;27;20085;-73
2022/11/17 07:22:33;;;;;;;7.43;5.67;;;6.70;99.90;;;;;;5134608;27;20436;-74
2022/11/17 07:25:17;;;;;;;7.95;5.95;;;6.40;99.90;;;;;;5111158;27;20333;-80
2022/11/17 07:27:43;;;;;;;10.25;6.47;;;6.30;99.90;;;;;;5111447;28;20047;-80
2022/11/17 07:30:09;;;;;;;9.07;6.28;;;6.70;99.90;;;;;;5111601;28;20086;-78
2022/11/17 07:32:35;;;;;;;10.02;5.97;;;6.70;99.90;;;;;;5110398;28;20093;-78
2022/11/17 07:35:01;;;;;;;10.15;5.97;;;6.60;99.90;;;;;;5127529;28;20052;-77
2022/11/17 07:37:32;;;;;;;8.70;6.00;;;6.70;99.90;;;;;;5111384;28;20042;-80
2022/11/17 07:39:58;;;;;;;8.52;6.28;;;6.70;99.90;;;;;;5111398;28;20044;-80
2022/11/17 07:42:24;;;;;;;7.87;5.93;;;7.80;99.90;;;;;;5111510;28;20391;-78
2022/11/17 07:44:49;;;;;;;9.60;6.75;;;6.70;99.90;;;;;;5111146;28;20036;-77
2022/11/17 07:47:15;;;;;;;10.15;6.57;;;6.70;99.90;;;;;;5111138;28;20055;-77
2022/11/17 07:49:40;;;;;;;8.98;6.45;;;6.70;99.90;;;;;;5111082;28;20043;-78
2022/11/17 07:52:06;;;;;;;10.10;7.35;;;6.60;99.90;;;;;;5110894;28;20048;-78
2022/11/17 07:54:31;;;;;;;8.32;6.55;;;6.70;99.90;;;;;;5111066;28;20146;-77
2022/11/17 07:56:57;;;;;;;9.10;6.18;;;6.50;99.90;;;;;;5110938;28;20036;-79
2022/11/17 07:59:23;;;;;;;9.73;7.68;;;6.80;99.90;;;;;;5111166;28;20151;-78
2022/11/17 08:01:48;;;;;;;9.30;6.68;;;6.70;99.90;;;;;;5111071;28;20050;-81
2022/11/17 08:04:14;;;;;;;9.23;6.97;;;6.70;99.90;;;;;;5110705;28;20105;-80
2022/11/17 08:06:39;;;;;;;10.23;7.40;;;6.70;99.90;;;;;;5111383;28;20097;-79
2022/11/17 08:09:06;;;;;;;11.77;7.88;;;6.70;99.90;;;;;;5110690;28;20098;-80
2022/11/17 08:11:31;;;;;;;9.93;8.18;;;7.40;99.90;;;;;;5110712;28;20093;-81
2022/11/17 08:13:58;;;;;;;11.73;7.35;;;6.70;99.90;;;;;;5110899;28;20040;-81
2022/11/17 08:16:29;;;;;;;11.10;7.38;;;6.70;99.90;;;;;;5110722;28;20062;-80
2022/11/17 08:18:57;;;;;;;12.40;8.07;;;6.50;99.90;;;;;;5109416;28;20395;-80
2022/11/17 08:21:23;;;;;;;11.50;8.13;;;6.70;99.90;;;;;;5110521;28;20440;-78
2022/11/17 08:23:53;;;;;;;8.80;7.18;;;6.80;99.90;;;;;;5110141;28;20059;-80
2022/11/17 08:26:20;;;;;;;11.00;7.72;;;6.70;99.90;;;;;;5110357;28;20441;-78
2022/11/17 08:28:46;;;;;;;12.17;7.53;;;6.70;99.90;;;;;;5110611;28;20051;-78
2022/11/17 08:31:12;;;;;;;11.60;8.43;;;6.70;99.90;;;;;;5110260;28;20327;-77
2022/11/17 08:33:37;;;;;;;12.95;7.65;;;6.70;99.90;;;;;;5110178;28;20044;-76
2022/11/17 08:36:05;;;;;;;11.73;7.60;;;6.70;99.90;;;;;;5099977;28;20057;-77
2022/11/17 08:38:32;;;;;;;9.45;7.20;;;6.70;99.90;;;;;;5095743;28;20404;-76
2022/11/17 08:41:00;;;;;;;12.13;8.13;;;6.70;99.90;;;;;;5096360;28;20047;-78
2022/11/17 08:43:25;;;;;;;10.57;7.60;;;6.70;99.90;;;;;;5096430;28;20043;-77
2022/11/17 08:45:51;;;;;;;8.73;7.35;;;6.70;99.90;;;;;;5096244;28;20040;-81
2022/11/17 08:48:16;;;;;;;10.70;7.72;;;6.70;99.90;;;;;;5096436;28;20042;-77
2022/11/17 08:50:42;;;;;;;9.15;7.57;;;6.70;99.90;;;;;;5096514;28;20122;-76
2022/11/17 08:53:19;;;;;;;8.65;7.45;;;6.70;99.90;;;;;;5096228;28;20480;-77
2022/11/17 08:55:48;;;;;;;9.50;6.50;;;6.80;99.90;;;;;;5096371;28;20047;-77
2022/11/17 08:58:14;;;;;;;11.82;6.72;;;6.70;99.90;;;;;;5096262;28;20066;-79
2022/11/17 09:00:40;;;;;;;7.72;6.43;;;6.70;99.90;;;;;;5095794;28;20044;-76
2022/11/17 09:03:09;;;;;;;8.73;6.95;;;6.70;99.90;;;;;;5095969;28;20471;-76
2022/11/17 09:05:40;;;;;;;8.70;6.20;;;6.70;99.90;;;;;;5096121;28;20048;-78
2022/11/17 09:08:06;;;;;;;8.98;6.65;;;6.70;99.90;;;;;;5096260;28;20090;-80
2022/11/17 09:10:32;;;;;;;7.53;6.00;;;7.50;99.90;;;;;;5090425;28;20507;-87
2022/11/17 09:12:58;;;;;;;7.67;5.63;;;6.70;99.90;;;;;;5075538;28;20476;-78
2022/11/17 09:15:24;;;;;;;7.50;6.38;;;6.70;99.90;;;;;;5079222;28;20317;-77
2022/11/17 09:17:50;;;;;;;8.73;6.45;;;6.80;99.90;;;;;;5087785;28;20051;-81
2022/11/17 09:20:17;;;;;;;7.53;6.20;;;6.80;99.90;;;;;;5095577;28;20044;-75
2022/11/17 09:22:44;;;;;;;7.57;5.93;;;6.80;99.90;;;;;;5093692;28;20059;-76
2022/11/17 09:25:10;;;;;;;9.50;6.78;;;6.90;99.90;;;;;;5089623;28;20463;-78
2022/11/17 09:27:35;;;;;;;7.60;5.78;;;6.80;99.90;;;;;;5095665;28;20048;-80
2022/11/17 09:30:01;;;;;;;8.68;6.38;;;6.90;99.90;;;;;;5095612;28;20047;-77
2022/11/17 09:32:27;;;;;;;7.57;6.10;;;6.90;99.90;;;;;;5093683;28;20124;-78
2022/11/17 09:34:52;;;;;;;8.38;6.25;;;6.90;99.90;;;;;;5095479;28;20036;-78
2022/11/17 09:37:19;;;;;;;6.82;6.13;;;6.90;99.90;;;;;;5095291;28;20129;-77
2022/11/17 09:39:45;;;;;;;7.63;6.30;;;6.90;99.90;;;;;;5095200;28;20044;-78
2022/11/17 09:42:16;;;;;;;8.60;6.35;;;6.90;99.90;;;;;;5093637;28;20055;-76
2022/11/17 09:45:01;;;;;;;6.75;5.75;;;6.80;99.90;;;;;;5094863;28;20125;-77
2022/11/17 09:47:46;;;;;;;7.05;5.93;;;6.90;99.90;;;;;;5093533;28;20203;-79
2022/11/17 09:50:16;;;;;;;7.68;5.95;;;6.90;99.90;;;;;;5095190;28;20466;-75
2022/11/17 09:53:08;;;;;;;7.53;6.03;;;6.90;99.90;;;;;;5095029;28;20066;-76
2022/11/17 09:55:37;;;;;;;6.15;5.50;;;7.00;99.90;;;;;;5095487;28;20396;-76
2022/11/17 09:58:45;;;;;;;6.90;5.93;;;7.00;99.90;;;;;;5091367;28;20048;-77
2022/11/17 10:01:16;;;;;;;7.40;5.68;;;7.00;99.90;;;;;;5074761;28;20040;-76
2022/11/17 10:03:43;;;;;;;7.80;5.68;;;6.60;99.90;;;;;;5074923;28;20120;-82
2022/11/17 10:06:19;;;;;;;;;;;7.00;99.90;;;;;;5094685;28;20503;-74
2022/11/17 10:09:10;;;;;;;7.18;5.03;;;7.00;99.90;;;;;;5099085;28;20330;-76
2022/11/17 10:11:42;;;;;;;9.32;5.85;;;7.00;99.90;;;;;;5094171;28;20072;-75
2022/11/17 10:14:09;;;;;;;6.30;5.07;;;6.90;99.90;;;;;;5094270;28;20070;-76
2022/11/17 10:16:36;;;;;;;7.43;5.88;;;7.00;99.90;;;;;;5094610;28;20048;-75
2022/11/17 10:19:24;;;;;;;6.07;5.30;;;7.00;99.90;;;;;;5092665;28;21808;-75
2022/11/17 10:22:02;;;;;;;7.82;5.55;;;7.10;99.90;;;;;;5094768;28;20048;-82
2022/11/17 10:24:33;;;;;;;6.50;5.47;;;7.10;99.90;;;;;;5094435;28;20056;-79
2022/11/17 10:27:01;;;;;;;7.03;5.47;;;6.70;99.90;;;;;;5094083;28;20044;-81
2022/11/17 10:29:27;;;;;;;6.63;5.20;;;7.10;99.90;;;;;;5093979;28;20067;-79
2022/11/17 10:31:53;;;;;;;6.82;5.50;;;8.00;99.90;;;;;;5089954;28;20472;-79
2022/11/17 10:34:32;;;;;;;7.15;4.95;;;7.10;99.90;;;;;;5093991;28;20051;-79
2022/11/17 10:37:20;;;;;;;6.25;5.35;;;7.20;99.90;;;;;;5094461;28;20044;-79
2022/11/17 10:39:46;;;;;;;6.53;5.13;;;7.20;99.90;;;;;;5094663;28;20109;-78
2022/11/17 10:42:24;;;;;;;7.90;5.30;;;6.80;99.90;;;;;;5094743;28;20487;-79
2022/11/17 10:44:52;;;;;;;6.70;4.70;;;7.20;99.90;;;;;;5092961;28;20070;-77
2022/11/17 10:47:32;;;;;;;6.57;5.03;;;7.20;99.90;;;;;;5094194;28;20075;-78
2022/11/17 10:50:27;;;;;;;6.65;5.22;;;7.20;99.90;;;;;;5093483;28;20040;-77
2022/11/17 10:53:10;;;;;;;6.30;5.25;;;7.20;99.90;;;;;;5091385;28;20040;-76
2022/11/17 10:55:37;;;;;;;7.50;5.13;;;7.20;99.90;;;;;;5092856;28;20404;-77
2022/11/17 10:58:03;;;;;;;;;;;7.30;99.90;;;;;;5094219;28;20044;-78
2022/11/17 11:00:51;;;;;;;5.78;4.75;;;7.20;99.90;;;;;;5093222;28;19924;-77
2022/11/17 11:03:19;;;;;;;6.15;4.68;;;7.20;99.90;;;;;;5092929;28;20083;-78
2022/11/17 11:06:20;;;;;;;5.78;4.45;;;7.50;99.90;;;;;;5087116;28;20044;-76
2022/11/17 11:09:03;;;;;;;6.97;5.10;;;7.30;99.90;;;;;;5093197;28;20123;-74
2022/11/17 11:11:41;;;;;;;5.68;4.82;;;7.30;99.90;;;;;;5093830;28;20080;-76
2022/11/17 11:14:29;;;;;;;7.32;4.95;;;7.30;99.90;;;;;;5093872;28;20040;-76
2022/11/17 11:16:54;;;;;;;7.43;4.67;;;7.30;99.90;;;;;;5091984;28;20043;-76
2022/11/17 11:19:20;;;;;;;5.40;4.90;;;7.40;99.90;;;;;;5093624;28;20357;-78
2022/11/17 11:22:14;;;;;;;6.80;5.30;;;7.40;99.90;;;;;;5094207;28;20083;-73
2022/11/17 11:25:08;;;;;;;6.35;5.25;;;7.40;99.90;;;;;;5093144;28;20091;-77
2022/11/17 11:27:34;;;;;;;5.65;4.72;;;7.40;99.90;;;;;;5093807;28;20040;-78
2022/11/17 11:30:05;;;;;;;6.10;5.30;;;7.10;99.90;;;;;;5093575;28;20056;-77
2022/11/17 11:32:37;;;;;;;6.45;5.13;;;7.50;99.90;;;;;;5091961;28;20157;-74
2022/11/17 11:35:30;;;;;;;6.50;4.78;;;7.00;99.90;;;;;;5085250;28;20044;-75
2022/11/17 11:38:22;;;;;;;5.72;5.10;;;7.50;99.90;;;;;;5093516;28;20083;-76
2022/11/17 11:41:06;;;;;;;7.85;5.75;;;7.50;99.90;;;;;;5093762;28;20040;-75
2022/11/17 11:43:51;;;;;;;7.15;5.65;;;7.50;99.90;;;;;;5093626;28;20051;-73
2022/11/17 11:46:27;;;;;;;6.95;5.95;;;7.60;99.90;;;;;;5093832;28;20079;-75
2022/11/17 11:48:56;;;;;;;7.40;5.97;;;7.70;99.90;;;;;;5091824;28;20044;-74
2022/11/17 11:51:27;;;;;;;9.00;6.35;;;7.80;99.90;;;;;;5088271;28;20152;-77
2022/11/17 11:53:59;;;;;;;6.95;5.60;;;7.80;99.90;;;;;;5088195;28;20076;-75
2022/11/17 11:56:34;;;;;;;7.20;5.80;;;7.60;99.90;;;;;;5086269;28;20046;-76
2022/11/17 11:59:05;;;;;;;8.30;6.40;;;8.00;99.90;;;;;;5093371;28;20052;-80
2022/11/17 12:01:47;;;;;;;7.68;6.00;;;7.90;99.90;;;;;;5093509;28;20044;-80
2022/11/17 12:04:34;;;;;;;8.65;6.13;;;7.90;99.90;;;;;;5091114;28;20042;-81
2022/11/17 12:07:12;;;;;;;8.25;6.10;;;7.90;99.90;;;;;;5093287;28;20099;-78
2022/11/17 12:09:43;;;;;;;8.63;6.35;;;7.90;99.90;;;;;;5093581;28;20050;-76
2022/11/17 12:12:14;;;;;;;8.02;6.78;;;8.00;99.90;;;;;;5097036;28;20069;-76
2022/11/17 12:15:09;;;;;;;7.97;6.40;;;8.00;99.90;;;;;;5096824;28;20076;-78
2022/11/17 12:17:35;;;;;;;9.45;7.15;;;8.10;99.90;;;;;;5094275;28;20128;-75
2022/11/17 12:20:22;;;;;;;10.73;7.60;;;8.20;99.90;;;;;;5096914;28;20090;-80
2022/11/17 12:22:59;;;;;;;11.35;7.47;;;8.30;99.90;;;;;;5078335;28;20048;-75
2022/11/17 12:25:31;;;;;;;9.27;7.38;;;8.20;99.90;;;;;;5096779;28;20052;-73
2022/11/17 12:27:57;;;;;;;14.40;9.40;;;8.50;99.90;;;;;;5097483;28;20044;-83
2022/11/17 12:30:31;;;;;;;10.50;8.73;;;8.60;99.90;;;;;;5095675;28;20040;-79
2022/11/17 12:33:05;;;;;;;13.98;10.68;;;8.70;99.90;;;;;;5075294;28;20044;-77
2022/11/17 12:35:32;;;;;;;14.48;9.93;;;8.80;99.90;;;;;;5076533;28;20052;-78
2022/11/17 12:38:13;;;;;;;11.95;8.68;;;8.90;99.90;;;;;;5076441;28;20127;-78
2022/11/17 12:40:38;;;;;;;13.45;8.32;;;8.90;99.90;;;;;;5076766;28;20095;-77
2022/11/17 12:43:24;;;;;;;8.20;6.82;;;9.00;99.90;;;;;;5076050;28;20044;-78
2022/11/17 12:45:52;;;;;;;11.40;7.90;;;9.00;99.90;;;;;;5084185;28;20567;-77
2022/11/17 12:48:29;;;;;;;11.80;8.18;;;9.10;99.90;;;;;;5096377;28;20044;-85
2022/11/17 12:51:20;;;;;;;9.50;7.68;;;9.10;99.90;;;;;;5096241;28;20375;-77
2022/11/17 12:54:15;;;;;;;12.25;8.82;;;9.10;99.90;;;;;;5094001;28;20381;-78
2022/11/17 12:56:56;;;;;;;10.35;8.35;;;9.10;99.90;;;;;;5096256;28;20048;-79
2022/11/17 12:59:28;;;;;;;14.50;9.25;;;9.10;99.90;;;;;;5096324;28;20040;-79
2022/11/17 13:01:56;;;;;;;12.85;9.48;;;9.10;99.90;;;;;;5096205;28;20048;-79
2022/11/17 13:04:32;;;;;;;11.82;9.07;;;9.10;99.90;;;;;;5094406;28;20050;-78
2022/11/17 13:07:05;;;;;;;12.88;8.55;;;9.10;99.90;;;;;;5096153;28;20050;-80
2022/11/17 13:09:35;;;;;;;9.52;8.02;;;9.10;99.90;;;;;;5096117;28;20044;-80
2022/11/17 13:12:06;;;;;;;11.32;7.57;;;9.10;99.90;;;;;;5076383;28;20066;-76
2022/11/17 13:14:50;;;;;;;11.88;7.38;;;9.10;99.90;;;;;;5075715;28;20044;-77
2022/11/17 13:17:15;;;;;;;7.82;6.13;;;8.80;99.90;;;;;;5095158;28;20048;-79
2022/11/17 13:19:41;;;;;;;7.72;6.47;;;8.70;99.90;;;;;;5095837;28;20062;-83
2022/11/17 13:22:10;;;;;;;7.57;5.95;;;9.00;99.90;;;;;;5077195;28;20054;-79
2022/11/17 13:24:38;;;;;;;7.20;6.18;;;9.00;99.90;;;;;;5095299;28;20086;-76
2022/11/17 13:27:14;;;;;;;10.75;6.93;;;8.90;99.90;;;;;;5095418;28;20051;-75
2022/11/17 13:29:40;;;;;;;10.18;6.18;;;8.50;99.90;;;;;;5095841;28;20090;-78
2022/11/17 13:32:19;;;;;;;9.02;5.80;;;8.90;99.90;;;;;;5095747;28;20087;-75
2022/11/17 13:34:55;;;;;;;7.78;5.68;;;8.90;99.90;;;;;;5095383;28;20040;-77